^^
Meteo Knjazevac Station Historical Data
Daily Summary for March 6, 2021 Units:  English    Metric   Both
Daily Weekly Monthly Yearly Custom
  High: Low: Average:
Temperature: 34.5 °F 32.7 °F 33.5 °F
Dew Point: 34 °F 31.7 °F 32.8 °F
Humidity: 99% 94% 97%
Wind Speed: 5mph 0mph 2mph
Wind Gust: 8mph - -
Wind- - SSW
Pressure: 30.02 in 30.00 in -
Precipitation: 0.00 in    
Historical Graphs
 
 
Tabular Data for March 6, 2021
Time Temperature Dew Point Pressure Wind Wind Speed Wind Gust Humidity Rainfall Rate (Hourly) solar Conditions
00:00 33.8 °F 32.3 °F 30.01 in West 5 mph 8 mph 94% 0.00 in 0 W/m2
00:10 33.4 °F 32.2 °F 30.01 in West 3 mph 7 mph 95% 0.00 in 0 W/m2
00:20 33.7 °F 32.7 °F 30.01 in WNW 5 mph 8 mph 96% 0.00 in 0 W/m2
00:30 34 °F 32.7 °F 30.01 in WNW 2 mph 8 mph 95% 0.00 in 0 W/m2
00:40 33.4 °F 32.2 °F 30.01 in West 2 mph 5 mph 95% 0.00 in 0 W/m2
00:50 33.1 °F 31.8 °F 30.01 in West 2 mph 5 mph 95% 0.00 in 0 W/m2
01:00 32.9 °F 31.9 °F 30.01 in NW 2 mph 6 mph 96% 0.00 in 0 W/m2
01:10 33.3 °F 32.2 °F 30.02 in Calm   6 mph 96% 0.00 in 0 W/m2
01:20 33.4 °F 32.4 °F 30.02 in NW 1 mph 5 mph 96% 0.00 in 0 W/m2
01:30 33.3 °F 32.3 °F 30.02 in WSW 2 mph 4 mph 96% 0.00 in 0 W/m2
01:40 33.1 °F 32.1 °F 30.01 in WNW 3 mph 6 mph 96% 0.00 in 0 W/m2
01:50 32.9 °F 31.9 °F 30.02 in WNW 3 mph 7 mph 96% 0.00 in 0 W/m2
02:00 33.1 °F 32.6 °F 30.02 in West 3 mph 7 mph 98% 0.00 in 0 W/m2
02:10 32.9 °F 31.9 °F 30.02 in West 2 mph 6 mph 96% 0.00 in 0 W/m2
02:20 32.7 °F 31.7 °F 30.02 in Calm   5 mph 96% 0.00 in 0 W/m2
02:30 32.7 °F 31.7 °F 30.02 in Calm   2 mph 96% 0.00 in 0 W/m2
02:40 32.7 °F 32.2 °F 30.02 in North 1 mph 5 mph 98% 0.00 in 0 W/m2
02:50 32.9 °F 32.4 °F 30.02 in ENE 1 mph 4 mph 98% 0.00 in 0 W/m2
03:00 33.1 °F 32.6 °F 30.02 in NNW 1 mph 4 mph 98% 0.00 in 0 W/m2
03:10 33.4 °F 32.9 °F 30.01 in North 2 mph 5 mph 98% 0.00 in 0 W/m2
03:20 33.6 °F 33.1 °F 30.01 in NNE 2 mph 5 mph 98% 0.00 in 0 W/m2
03:30 33.6 °F 33.1 °F 30.01 in Calm   4 mph 98% 0.00 in 0 W/m2
03:40 33.4 °F 32.4 °F 30.01 in WSW 2 mph 5 mph 96% 0.00 in 0 W/m2
03:50 33.4 °F 32.9 °F 30.00 in West 3 mph 6 mph 98% 0.00 in 0 W/m2
04:00 33.4 °F 32.9 °F 30.00 in NNW 3 mph 5 mph 98% 0.00 in 0 W/m2
04:10 33.7 °F 33.2 °F 30.01 in NNE 1 mph 6 mph 98% 0.00 in 0 W/m2
04:20 34 °F 33.5 °F 30.00 in NNE 3 mph 6 mph 98% 0.00 in 0 W/m2
04:30 33.8 °F 33.3 °F 30.00 in NNE 3 mph 5 mph 98% 0.00 in 0 W/m2
04:40 33.8 °F 32.8 °F 30.01 in NE 3 mph 7 mph 96% 0.00 in 0 W/m2
04:50 33.6 °F 33.1 °F 30.00 in NNE 2 mph 6 mph 98% 0.00 in 0 W/m2
05:00 33.8 °F 33.3 °F 30.01 in West 3 mph 5 mph 98% 0.00 in 0 W/m2
05:10 33.6 °F 33.1 °F 30.00 in West 3 mph 5 mph 98% 0.00 in 0 W/m2
05:20 33.6 °F 33.1 °F 30.00 in WSW 2 mph 4 mph 98% 0.00 in 0 W/m2
05:30 33.6 °F 33.1 °F 30.00 in West 2 mph 6 mph 98% 0.00 in 0 W/m2
05:40 33.9 °F 33.7 °F 30.01 in West 1 mph 5 mph 99% 0.00 in 0 W/m2
05:50 34.2 °F 33.7 °F 30.01 in West 1 mph 5 mph 98% 0.00 in 0 W/m2
06:00 34.3 °F 33.8 °F 30.01 in Calm   2 mph 98% 0.00 in 0 W/m2
06:10 34.5 °F 34 °F 30.01 in SW 1 mph 3 mph 98% 0.00 in 0 W/m2
06:20 34.3 °F 33.8 °F 30.01 in WSW 1 mph 4 mph 98% 0.00 in 0 W/m2
06:30 34.3 °F 33.8 °F 30.01 in NNE 5 mph 7 mph 98% 0.00 in 0 W/m2
Knjazevac, Serbia
Compliments of Weather Underground - 2 mb